sensor_id;sensor_type;location;lat;lon;timestamp;P1;durP1;ratioP1;P2;durP2;ratioP2
78783;SDS011;68127;51.050;14.084;2023-03-18T00:00:00;8.80;;;3.78;;
78783;SDS011;68127;51.050;14.084;2023-03-18T00:02:26;8.10;;;3.95;;
78783;SDS011;68127;51.050;14.084;2023-03-18T00:04:51;7.97;;;3.80;;
78783;SDS011;68127;51.050;14.084;2023-03-18T00:07:17;9.25;;;4.03;;
78783;SDS011;68127;51.050;14.084;2023-03-18T00:09:42;8.45;;;3.90;;
78783;SDS011;68127;51.050;14.084;2023-03-18T00:12:08;10.82;;;3.97;;
78783;SDS011;68127;51.050;14.084;2023-03-18T00:14:35;7.70;;;4.07;;
78783;SDS011;68127;51.050;14.084;2023-03-18T00:17:01;7.32;;;4.00;;
78783;SDS011;68127;51.050;14.084;2023-03-18T00:19:27;10.13;;;4.10;;
78783;SDS011;68127;51.050;14.084;2023-03-18T00:21:52;6.95;;;4.03;;
78783;SDS011;68127;51.050;14.084;2023-03-18T00:24:18;8.50;;;3.63;;
78783;SDS011;68127;51.050;14.084;2023-03-18T00:26:43;9.27;;;3.85;;
78783;SDS011;68127;51.050;14.084;2023-03-18T00:29:09;10.57;;;4.05;;
78783;SDS011;68127;51.050;14.084;2023-03-18T00:31:34;8.73;;;3.90;;
78783;SDS011;68127;51.050;14.084;2023-03-18T00:34:02;7.13;;;3.70;;
78783;SDS011;68127;51.050;14.084;2023-03-18T00:36:27;7.10;;;3.63;;
78783;SDS011;68127;51.050;14.084;2023-03-18T00:38:54;9.27;;;4.72;;
78783;SDS011;68127;51.050;14.084;2023-03-18T00:41:27;9.68;;;4.28;;
78783;SDS011;68127;51.050;14.084;2023-03-18T00:43:52;7.85;;;3.58;;
78783;SDS011;68127;51.050;14.084;2023-03-18T00:46:19;6.85;;;4.03;;
78783;SDS011;68127;51.050;14.084;2023-03-18T00:48:44;8.38;;;3.65;;
78783;SDS011;68127;51.050;14.084;2023-03-18T00:51:11;7.50;;;3.45;;
78783;SDS011;68127;51.050;14.084;2023-03-18T00:53:48;10.30;;;3.63;;
78783;SDS011;68127;51.050;14.084;2023-03-18T00:56:16;7.60;;;3.92;;
78783;SDS011;68127;51.050;14.084;2023-03-18T00:58:42;7.63;;;3.70;;
78783;SDS011;68127;51.050;14.084;2023-03-18T01:01:09;7.57;;;3.83;;
78783;SDS011;68127;51.050;14.084;2023-03-18T01:03:36;6.97;;;3.47;;
78783;SDS011;68127;51.050;14.084;2023-03-18T01:06:01;8.82;;;4.32;;
78783;SDS011;68127;51.050;14.084;2023-03-18T01:08:28;8.57;;;3.63;;
78783;SDS011;68127;51.050;14.084;2023-03-18T01:10:54;6.43;;;3.35;;
78783;SDS011;68127;51.050;14.084;2023-03-18T01:13:20;9.82;;;4.22;;
78783;SDS011;68127;51.050;14.084;2023-03-18T01:15:46;9.25;;;4.20;;
78783;SDS011;68127;51.050;14.084;2023-03-18T01:18:12;6.32;;;3.70;;
78783;SDS011;68127;51.050;14.084;2023-03-18T01:20:37;8.23;;;4.20;;
78783;SDS011;68127;51.050;14.084;2023-03-18T01:23:03;8.15;;;3.70;;
78783;SDS011;68127;51.050;14.084;2023-03-18T01:25:30;7.78;;;3.50;;
78783;SDS011;68127;51.050;14.084;2023-03-18T01:27:55;7.22;;;4.00;;
78783;SDS011;68127;51.050;14.084;2023-03-18T01:30:21;8.35;;;4.43;;
78783;SDS011;68127;51.050;14.084;2023-03-18T01:32:47;10.25;;;4.07;;
78783;SDS011;68127;51.050;14.084;2023-03-18T01:35:13;9.65;;;3.78;;
78783;SDS011;68127;51.050;14.084;2023-03-18T01:37:38;9.00;;;3.95;;
78783;SDS011;68127;51.050;14.084;2023-03-18T01:40:04;8.75;;;4.28;;
78783;SDS011;68127;51.050;14.084;2023-03-18T01:42:30;8.40;;;4.20;;
78783;SDS011;68127;51.050;14.084;2023-03-18T01:45:16;8.75;;;3.97;;
78783;SDS011;68127;51.050;14.084;2023-03-18T01:47:47;7.88;;;3.83;;
78783;SDS011;68127;51.050;14.084;2023-03-18T01:50:14;8.95;;;4.03;;
78783;SDS011;68127;51.050;14.084;2023-03-18T01:52:44;8.35;;;3.95;;
78783;SDS011;68127;51.050;14.084;2023-03-18T01:55:14;8.30;;;4.05;;
78783;SDS011;68127;51.050;14.084;2023-03-18T01:57:42;7.63;;;3.88;;
78783;SDS011;68127;51.050;14.084;2023-03-18T02:00:08;10.32;;;4.10;;
78783;SDS011;68127;51.050;14.084;2023-03-18T02:02:35;9.93;;;4.53;;
78783;SDS011;68127;51.050;14.084;2023-03-18T02:05:04;9.02;;;4.03;;
78783;SDS011;68127;51.050;14.084;2023-03-18T02:07:32;9.50;;;4.35;;
78783;SDS011;68127;51.050;14.084;2023-03-18T02:09:59;7.38;;;3.60;;
78783;SDS011;68127;51.050;14.084;2023-03-18T02:12:32;6.53;;;3.78;;
78783;SDS011;68127;51.050;14.084;2023-03-18T02:15:00;8.10;;;4.22;;
78783;SDS011;68127;51.050;14.084;2023-03-18T02:17:28;7.95;;;3.90;;
78783;SDS011;68127;51.050;14.084;2023-03-18T02:22:45;8.40;;;4.18;;
78783;SDS011;68127;51.050;14.084;2023-03-18T02:28:09;7.82;;;3.63;;
78783;SDS011;68127;51.050;14.084;2023-03-18T02:30:37;8.63;;;3.75;;
78783;SDS011;68127;51.050;14.084;2023-03-18T02:33:04;10.65;;;3.80;;
78783;SDS011;68127;51.050;14.084;2023-03-18T02:35:30;7.40;;;4.10;;
78783;SDS011;68127;51.050;14.084;2023-03-18T02:37:56;6.53;;;3.60;;
78783;SDS011;68127;51.050;14.084;2023-03-18T02:40:30;8.82;;;3.97;;
78783;SDS011;68127;51.050;14.084;2023-03-18T02:43:05;8.32;;;3.72;;
78783;SDS011;68127;51.050;14.084;2023-03-18T02:45:42;6.07;;;3.58;;
78783;SDS011;68127;51.050;14.084;2023-03-18T02:48:16;8.38;;;4.00;;
78783;SDS011;68127;51.050;14.084;2023-03-18T02:50:42;7.30;;;3.72;;
78783;SDS011;68127;51.050;14.084;2023-03-18T02:53:09;8.43;;;4.10;;
78783;SDS011;68127;51.050;14.084;2023-03-18T02:55:35;9.43;;;4.20;;
78783;SDS011;68127;51.050;14.084;2023-03-18T02:58:01;7.70;;;3.83;;
78783;SDS011;68127;51.050;14.084;2023-03-18T03:00:26;8.60;;;3.55;;
78783;SDS011;68127;51.050;14.084;2023-03-18T03:02:51;8.82;;;4.10;;
78783;SDS011;68127;51.050;14.084;2023-03-18T03:05:16;8.85;;;3.90;;
78783;SDS011;68127;51.050;14.084;2023-03-18T03:07:42;9.57;;;4.07;;
78783;SDS011;68127;51.050;14.084;2023-03-18T03:10:07;7.15;;;4.10;;
78783;SDS011;68127;51.050;14.084;2023-03-18T03:12:33;7.18;;;3.85;;
78783;SDS011;68127;51.050;14.084;2023-03-18T03:15:01;8.80;;;3.80;;
78783;SDS011;68127;51.050;14.084;2023-03-18T03:17:27;7.65;;;4.10;;
78783;SDS011;68127;51.050;14.084;2023-03-18T03:19:52;8.00;;;3.97;;
78783;SDS011;68127;51.050;14.084;2023-03-18T03:22:18;7.63;;;4.03;;
78783;SDS011;68127;51.050;14.084;2023-03-18T03:24:43;6.60;;;4.20;;
78783;SDS011;68127;51.050;14.084;2023-03-18T03:27:09;8.70;;;3.78;;
78783;SDS011;68127;51.050;14.084;2023-03-18T03:29:34;8.38;;;4.43;;
78783;SDS011;68127;51.050;14.084;2023-03-18T03:32:00;6.32;;;3.55;;
78783;SDS011;68127;51.050;14.084;2023-03-18T03:34:26;9.02;;;3.80;;
78783;SDS011;68127;51.050;14.084;2023-03-18T03:36:51;7.78;;;4.13;;
78783;SDS011;68127;51.050;14.084;2023-03-18T03:39:17;9.18;;;3.95;;
78783;SDS011;68127;51.050;14.084;2023-03-18T03:41:43;10.55;;;3.97;;
78783;SDS011;68127;51.050;14.084;2023-03-18T03:44:08;9.15;;;4.78;;
78783;SDS011;68127;51.050;14.084;2023-03-18T03:46:33;8.30;;;4.00;;
78783;SDS011;68127;51.050;14.084;2023-03-18T03:48:58;6.80;;;3.25;;
78783;SDS011;68127;51.050;14.084;2023-03-18T03:51:24;10.57;;;4.18;;
78783;SDS011;68127;51.050;14.084;2023-03-18T03:53:49;10.43;;;4.70;;
78783;SDS011;68127;51.050;14.084;2023-03-18T03:56:14;7.35;;;3.55;;
78783;SDS011;68127;51.050;14.084;2023-03-18T03:58:40;9.65;;;5.20;;
78783;SDS011;68127;51.050;14.084;2023-03-18T04:01:05;7.25;;;3.67;;
78783;SDS011;68127;51.050;14.084;2023-03-18T04:03:32;6.75;;;3.80;;
78783;SDS011;68127;51.050;14.084;2023-03-18T04:05:57;8.88;;;3.90;;
78783;SDS011;68127;51.050;14.084;2023-03-18T04:08:23;7.88;;;3.75;;
78783;SDS011;68127;51.050;14.084;2023-03-18T04:10:48;8.13;;;3.95;;
78783;SDS011;68127;51.050;14.084;2023-03-18T04:13:13;7.80;;;3.95;;
78783;SDS011;68127;51.050;14.084;2023-03-18T04:15:39;9.75;;;3.60;;
78783;SDS011;68127;51.050;14.084;2023-03-18T04:18:04;7.25;;;3.88;;
78783;SDS011;68127;51.050;14.084;2023-03-18T04:20:34;7.55;;;3.28;;
78783;SDS011;68127;51.050;14.084;2023-03-18T04:23:02;9.35;;;4.05;;
78783;SDS011;68127;51.050;14.084;2023-03-18T04:25:28;8.00;;;4.03;;
78783;SDS011;68127;51.050;14.084;2023-03-18T04:27:54;8.73;;;3.90;;
78783;SDS011;68127;51.050;14.084;2023-03-18T04:30:19;7.93;;;3.80;;
78783;SDS011;68127;51.050;14.084;2023-03-18T04:32:47;9.77;;;3.67;;
78783;SDS011;68127;51.050;14.084;2023-03-18T04:35:12;9.75;;;4.57;;
78783;SDS011;68127;51.050;14.084;2023-03-18T04:37:38;10.02;;;4.32;;
78783;SDS011;68127;51.050;14.084;2023-03-18T04:40:03;8.27;;;3.70;;
78783;SDS011;68127;51.050;14.084;2023-03-18T04:42:30;9.23;;;4.10;;
78783;SDS011;68127;51.050;14.084;2023-03-18T04:44:55;8.77;;;4.05;;
78783;SDS011;68127;51.050;14.084;2023-03-18T04:47:20;7.82;;;3.90;;
78783;SDS011;68127;51.050;14.084;2023-03-18T04:49:46;7.65;;;3.95;;
78783;SDS011;68127;51.050;14.084;2023-03-18T04:52:11;8.27;;;4.00;;
78783;SDS011;68127;51.050;14.084;2023-03-18T04:54:37;8.85;;;4.00;;
78783;SDS011;68127;51.050;14.084;2023-03-18T04:57:03;6.78;;;3.90;;
78783;SDS011;68127;51.050;14.084;2023-03-18T04:59:30;7.72;;;3.45;;
78783;SDS011;68127;51.050;14.084;2023-03-18T05:01:55;9.10;;;4.15;;
78783;SDS011;68127;51.050;14.084;2023-03-18T05:04:21;12.52;;;4.40;;
78783;SDS011;68127;51.050;14.084;2023-03-18T05:06:46;10.45;;;4.18;;
78783;SDS011;68127;51.050;14.084;2023-03-18T05:09:11;6.57;;;3.65;;
78783;SDS011;68127;51.050;14.084;2023-03-18T05:11:37;8.80;;;4.38;;
78783;SDS011;68127;51.050;14.084;2023-03-18T05:14:02;8.35;;;3.63;;
78783;SDS011;68127;51.050;14.084;2023-03-18T05:16:27;9.75;;;4.72;;
78783;SDS011;68127;51.050;14.084;2023-03-18T05:18:54;9.15;;;4.50;;
78783;SDS011;68127;51.050;14.084;2023-03-18T05:21:19;8.13;;;4.40;;
78783;SDS011;68127;51.050;14.084;2023-03-18T05:23:44;8.60;;;3.63;;
78783;SDS011;68127;51.050;14.084;2023-03-18T05:26:10;8.98;;;4.22;;
78783;SDS011;68127;51.050;14.084;2023-03-18T05:28:35;11.05;;;5.80;;
78783;SDS011;68127;51.050;14.084;2023-03-18T05:31:01;9.43;;;4.20;;
78783;SDS011;68127;51.050;14.084;2023-03-18T05:33:27;9.38;;;4.55;;
78783;SDS011;68127;51.050;14.084;2023-03-18T05:35:52;11.98;;;6.43;;
78783;SDS011;68127;51.050;14.084;2023-03-18T05:38:18;9.70;;;4.53;;
78783;SDS011;68127;51.050;14.084;2023-03-18T05:40:43;9.00;;;4.22;;
78783;SDS011;68127;51.050;14.084;2023-03-18T05:43:09;6.85;;;4.35;;
78783;SDS011;68127;51.050;14.084;2023-03-18T05:45:35;9.60;;;4.22;;
78783;SDS011;68127;51.050;14.084;2023-03-18T05:48:01;6.55;;;3.88;;
78783;SDS011;68127;51.050;14.084;2023-03-18T05:50:30;6.30;;;3.35;;
78783;SDS011;68127;51.050;14.084;2023-03-18T05:52:57;9.25;;;3.85;;
78783;SDS011;68127;51.050;14.084;2023-03-18T05:55:23;7.22;;;3.60;;
78783;SDS011;68127;51.050;14.084;2023-03-18T05:57:48;7.13;;;3.65;;
78783;SDS011;68127;51.050;14.084;2023-03-18T06:00:14;9.43;;;4.32;;
78783;SDS011;68127;51.050;14.084;2023-03-18T06:02:40;12.65;;;4.60;;
78783;SDS011;68127;51.050;14.084;2023-03-18T06:05:05;7.60;;;3.92;;
78783;SDS011;68127;51.050;14.084;2023-03-18T06:07:31;8.45;;;3.50;;
78783;SDS011;68127;51.050;14.084;2023-03-18T06:09:56;7.70;;;3.90;;
78783;SDS011;68127;51.050;14.084;2023-03-18T06:12:22;10.57;;;3.95;;
78783;SDS011;68127;51.050;14.084;2023-03-18T06:14:51;7.95;;;4.65;;
78783;SDS011;68127;51.050;14.084;2023-03-18T06:17:16;10.52;;;4.60;;
78783;SDS011;68127;51.050;14.084;2023-03-18T06:19:41;14.82;;;4.47;;
78783;SDS011;68127;51.050;14.084;2023-03-18T06:22:08;7.43;;;4.00;;
78783;SDS011;68127;51.050;14.084;2023-03-18T06:24:34;7.78;;;4.20;;
78783;SDS011;68127;51.050;14.084;2023-03-18T06:26:59;10.05;;;4.60;;
78783;SDS011;68127;51.050;14.084;2023-03-18T06:29:25;13.43;;;6.53;;
78783;SDS011;68127;51.050;14.084;2023-03-18T06:31:50;9.93;;;4.78;;
78783;SDS011;68127;51.050;14.084;2023-03-18T06:34:16;7.80;;;4.05;;
78783;SDS011;68127;51.050;14.084;2023-03-18T06:36:41;9.52;;;4.28;;
78783;SDS011;68127;51.050;14.084;2023-03-18T06:39:07;6.90;;;4.68;;
78783;SDS011;68127;51.050;14.084;2023-03-18T06:41:32;8.15;;;4.18;;
78783;SDS011;68127;51.050;14.084;2023-03-18T06:43:57;7.10;;;4.00;;
78783;SDS011;68127;51.050;14.084;2023-03-18T06:46:23;7.65;;;4.05;;
78783;SDS011;68127;51.050;14.084;2023-03-18T06:48:48;10.50;;;4.30;;
78783;SDS011;68127;51.050;14.084;2023-03-18T06:51:13;10.90;;;5.28;;
78783;SDS011;68127;51.050;14.084;2023-03-18T06:53:38;11.27;;;4.85;;
78783;SDS011;68127;51.050;14.084;2023-03-18T06:56:04;7.18;;;4.40;;
78783;SDS011;68127;51.050;14.084;2023-03-18T06:58:30;11.23;;;5.05;;
78783;SDS011;68127;51.050;14.084;2023-03-18T07:00:55;9.57;;;4.53;;
78783;SDS011;68127;51.050;14.084;2023-03-18T07:03:21;7.65;;;4.05;;
78783;SDS011;68127;51.050;14.084;2023-03-18T07:05:46;10.85;;;4.68;;
78783;SDS011;68127;51.050;14.084;2023-03-18T07:08:12;12.75;;;5.10;;
78783;SDS011;68127;51.050;14.084;2023-03-18T07:10:39;8.95;;;4.88;;
78783;SDS011;68127;51.050;14.084;2023-03-18T07:13:04;13.00;;;5.68;;
78783;SDS011;68127;51.050;14.084;2023-03-18T07:15:30;13.70;;;6.30;;
78783;SDS011;68127;51.050;14.084;2023-03-18T07:17:56;14.70;;;6.32;;
78783;SDS011;68127;51.050;14.084;2023-03-18T07:20:21;13.35;;;7.50;;
78783;SDS011;68127;51.050;14.084;2023-03-18T07:22:47;13.90;;;6.63;;
78783;SDS011;68127;51.050;14.084;2023-03-18T07:25:13;12.27;;;6.15;;
78783;SDS011;68127;51.050;14.084;2023-03-18T07:27:39;12.38;;;5.15;;
78783;SDS011;68127;51.050;14.084;2023-03-18T07:30:05;10.75;;;5.30;;
78783;SDS011;68127;51.050;14.084;2023-03-18T07:32:33;10.88;;;4.88;;
78783;SDS011;68127;51.050;14.084;2023-03-18T07:34:59;11.90;;;5.03;;
78783;SDS011;68127;51.050;14.084;2023-03-18T07:37:24;10.68;;;4.72;;
78783;SDS011;68127;51.050;14.084;2023-03-18T07:39:50;8.52;;;4.65;;
78783;SDS011;68127;51.050;14.084;2023-03-18T07:42:16;9.88;;;4.68;;
78783;SDS011;68127;51.050;14.084;2023-03-18T07:44:42;10.63;;;4.90;;
78783;SDS011;68127;51.050;14.084;2023-03-18T07:47:07;10.55;;;5.30;;
78783;SDS011;68127;51.050;14.084;2023-03-18T07:49:32;13.48;;;6.03;;
78783;SDS011;68127;51.050;14.084;2023-03-18T07:51:58;15.40;;;5.50;;
78783;SDS011;68127;51.050;14.084;2023-03-18T07:54:23;13.05;;;6.65;;
78783;SDS011;68127;51.050;14.084;2023-03-18T07:56:49;14.68;;;6.22;;
78783;SDS011;68127;51.050;14.084;2023-03-18T07:59:15;11.65;;;6.10;;
78783;SDS011;68127;51.050;14.084;2023-03-18T08:01:41;14.68;;;6.50;;
78783;SDS011;68127;51.050;14.084;2023-03-18T08:04:06;11.18;;;5.43;;
78783;SDS011;68127;51.050;14.084;2023-03-18T08:06:32;14.38;;;6.90;;
78783;SDS011;68127;51.050;14.084;2023-03-18T08:08:58;14.45;;;7.25;;
78783;SDS011;68127;51.050;14.084;2023-03-18T08:11:23;16.75;;;7.82;;
78783;SDS011;68127;51.050;14.084;2023-03-18T08:13:49;11.60;;;6.53;;
78783;SDS011;68127;51.050;14.084;2023-03-18T08:16:14;13.18;;;6.40;;
78783;SDS011;68127;51.050;14.084;2023-03-18T08:18:39;13.75;;;7.57;;
78783;SDS011;68127;51.050;14.084;2023-03-18T08:21:06;15.23;;;6.68;;
78783;SDS011;68127;51.050;14.084;2023-03-18T08:23:31;12.98;;;5.65;;
78783;SDS011;68127;51.050;14.084;2023-03-18T08:25:57;11.45;;;5.80;;
78783;SDS011;68127;51.050;14.084;2023-03-18T08:28:23;11.38;;;5.68;;
78783;SDS011;68127;51.050;14.084;2023-03-18T08:30:52;11.52;;;6.32;;
78783;SDS011;68127;51.050;14.084;2023-03-18T08:33:19;11.35;;;5.93;;
78783;SDS011;68127;51.050;14.084;2023-03-18T08:35:46;9.88;;;5.75;;
78783;SDS011;68127;51.050;14.084;2023-03-18T08:38:12;10.95;;;5.88;;
78783;SDS011;68127;51.050;14.084;2023-03-18T08:40:38;13.48;;;5.07;;
78783;SDS011;68127;51.050;14.084;2023-03-18T08:43:05;11.35;;;5.55;;
78783;SDS011;68127;51.050;14.084;2023-03-18T08:45:31;12.10;;;6.43;;
78783;SDS011;68127;51.050;14.084;2023-03-18T08:47:57;11.98;;;6.18;;
78783;SDS011;68127;51.050;14.084;2023-03-18T08:50:23;11.93;;;5.55;;
78783;SDS011;68127;51.050;14.084;2023-03-18T08:52:52;13.98;;;6.25;;
78783;SDS011;68127;51.050;14.084;2023-03-18T08:55:20;12.77;;;6.22;;
78783;SDS011;68127;51.050;14.084;2023-03-18T08:57:45;15.35;;;7.18;;
78783;SDS011;68127;51.050;14.084;2023-03-18T09:00:11;14.00;;;6.82;;
78783;SDS011;68127;51.050;14.084;2023-03-18T09:02:37;12.77;;;6.38;;
78783;SDS011;68127;51.050;14.084;2023-03-18T09:05:02;13.65;;;6.75;;
78783;SDS011;68127;51.050;14.084;2023-03-18T09:07:29;14.73;;;7.13;;
78783;SDS011;68127;51.050;14.084;2023-03-18T09:09:54;11.07;;;5.72;;
78783;SDS011;68127;51.050;14.084;2023-03-18T09:12:20;13.88;;;5.70;;
78783;SDS011;68127;51.050;14.084;2023-03-18T09:14:46;13.38;;;5.60;;
78783;SDS011;68127;51.050;14.084;2023-03-18T09:17:11;13.27;;;6.03;;
78783;SDS011;68127;51.050;14.084;2023-03-18T09:19:37;13.70;;;6.80;;
78783;SDS011;68127;51.050;14.084;2023-03-18T09:22:02;13.18;;;7.22;;
78783;SDS011;68127;51.050;14.084;2023-03-18T09:24:28;13.65;;;6.88;;
78783;SDS011;68127;51.050;14.084;2023-03-18T09:26:53;15.18;;;7.35;;
78783;SDS011;68127;51.050;14.084;2023-03-18T09:29:18;13.85;;;6.80;;
78783;SDS011;68127;51.050;14.084;2023-03-18T09:31:44;11.75;;;6.75;;
78783;SDS011;68127;51.050;14.084;2023-03-18T09:34:10;12.80;;;5.97;;
78783;SDS011;68127;51.050;14.084;2023-03-18T09:36:37;9.80;;;5.32;;
78783;SDS011;68127;51.050;14.084;2023-03-18T09:39:03;10.52;;;5.75;;
78783;SDS011;68127;51.050;14.084;2023-03-18T09:41:37;11.90;;;4.97;;
78783;SDS011;68127;51.050;14.084;2023-03-18T09:49:31;9.48;;;4.75;;
78783;SDS011;68127;51.050;14.084;2023-03-18T09:52:06;10.90;;;5.50;;
78783;SDS011;68127;51.050;14.084;2023-03-18T09:54:41;9.40;;;5.00;;
78783;SDS011;68127;51.050;14.084;2023-03-18T09:57:16;7.40;;;4.30;;
78783;SDS011;68127;51.050;14.084;2023-03-18T09:59:44;10.38;;;4.85;;
78783;SDS011;68127;51.050;14.084;2023-03-18T10:04:50;8.13;;;4.47;;
78783;SDS011;68127;51.050;14.084;2023-03-18T10:07:18;11.15;;;5.00;;
78783;SDS011;68127;51.050;14.084;2023-03-18T10:09:46;10.98;;;4.75;;
78783;SDS011;68127;51.050;14.084;2023-03-18T10:12:15;8.82;;;4.88;;
78783;SDS011;68127;51.050;14.084;2023-03-18T10:14:46;9.10;;;5.10;;
78783;SDS011;68127;51.050;14.084;2023-03-18T10:17:24;13.25;;;5.32;;
78783;SDS011;68127;51.050;14.084;2023-03-18T10:19:59;10.20;;;5.20;;
78783;SDS011;68127;51.050;14.084;2023-03-18T10:25:51;9.02;;;4.82;;
78783;SDS011;68127;51.050;14.084;2023-03-18T10:31:17;10.20;;;5.47;;
78783;SDS011;68127;51.050;14.084;2023-03-18T10:34:07;11.77;;;5.90;;
78783;SDS011;68127;51.050;14.084;2023-03-18T10:36:54;21.10;;;10.75;;
78783;SDS011;68127;51.050;14.084;2023-03-18T10:39:43;9.95;;;5.88;;
78783;SDS011;68127;51.050;14.084;2023-03-18T10:42:20;10.13;;;5.63;;
78783;SDS011;68127;51.050;14.084;2023-03-18T10:44:49;13.77;;;6.13;;
78783;SDS011;68127;51.050;14.084;2023-03-18T10:47:21;12.00;;;6.40;;
78783;SDS011;68127;51.050;14.084;2023-03-18T10:53:26;13.38;;;6.10;;
78783;SDS011;68127;51.050;14.084;2023-03-18T10:55:49;10.27;;;6.20;;
78783;SDS011;68127;51.050;14.084;2023-03-18T10:58:21;13.82;;;6.47;;
78783;SDS011;68127;51.050;14.084;2023-03-18T11:00:46;17.55;;;6.65;;
78783;SDS011;68127;51.050;14.084;2023-03-18T11:03:23;12.95;;;6.78;;
78783;SDS011;68127;51.050;14.084;2023-03-18T11:05:50;10.27;;;5.93;;
78783;SDS011;68127;51.050;14.084;2023-03-18T11:08:26;10.05;;;5.75;;
78783;SDS011;68127;51.050;14.084;2023-03-18T11:13:46;11.60;;;6.00;;
78783;SDS011;68127;51.050;14.084;2023-03-18T11:16:22;10.52;;;6.10;;
78783;SDS011;68127;51.050;14.084;2023-03-18T11:18:50;12.38;;;5.85;;
78783;SDS011;68127;51.050;14.084;2023-03-18T11:21:16;13.30;;;6.72;;
78783;SDS011;68127;51.050;14.084;2023-03-18T11:23:48;15.70;;;7.30;;
78783;SDS011;68127;51.050;14.084;2023-03-18T11:26:44;13.93;;;7.15;;
78783;SDS011;68127;51.050;14.084;2023-03-18T11:29:12;12.13;;;6.88;;
78783;SDS011;68127;51.050;14.084;2023-03-18T11:31:52;18.02;;;7.40;;
78783;SDS011;68127;51.050;14.084;2023-03-18T11:34:22;12.77;;;6.40;;
78783;SDS011;68127;51.050;14.084;2023-03-18T11:36:52;12.57;;;7.22;;
78783;SDS011;68127;51.050;14.084;2023-03-18T11:39:30;13.18;;;6.90;;
78783;SDS011;68127;51.050;14.084;2023-03-18T11:41:57;15.40;;;7.57;;
78783;SDS011;68127;51.050;14.084;2023-03-18T11:44:26;10.00;;;5.88;;
78783;SDS011;68127;51.050;14.084;2023-03-18T11:46:54;22.42;;;11.93;;
78783;SDS011;68127;51.050;14.084;2023-03-18T11:49:22;13.90;;;8.23;;
78783;SDS011;68127;51.050;14.084;2023-03-18T11:54:38;27.35;;;11.80;;
78783;SDS011;68127;51.050;14.084;2023-03-18T12:00:36;13.80;;;7.55;;
78783;SDS011;68127;51.050;14.084;2023-03-18T12:06:02;14.32;;;6.85;;
78783;SDS011;68127;51.050;14.084;2023-03-18T12:14:10;11.70;;;6.43;;
78783;SDS011;68127;51.050;14.084;2023-03-18T12:16:43;11.50;;;6.50;;
78783;SDS011;68127;51.050;14.084;2023-03-18T12:19:28;11.27;;;6.55;;
78783;SDS011;68127;51.050;14.084;2023-03-18T12:22:17;12.65;;;6.30;;
78783;SDS011;68127;51.050;14.084;2023-03-18T12:24:55;11.88;;;6.32;;
78783;SDS011;68127;51.050;14.084;2023-03-18T12:38:55;13.48;;;7.38;;
78783;SDS011;68127;51.050;14.084;2023-03-18T12:44:18;14.73;;;7.57;;
78783;SDS011;68127;51.050;14.084;2023-03-18T12:46:54;11.70;;;6.43;;
78783;SDS011;68127;51.050;14.084;2023-03-18T12:52:04;15.88;;;7.05;;
78783;SDS011;68127;51.050;14.084;2023-03-18T12:54:35;12.57;;;7.20;;
78783;SDS011;68127;51.050;14.084;2023-03-18T12:57:06;11.32;;;6.95;;
78783;SDS011;68127;51.050;14.084;2023-03-18T12:59:41;13.60;;;7.47;;
78783;SDS011;68127;51.050;14.084;2023-03-18T13:02:35;12.70;;;6.68;;
78783;SDS011;68127;51.050;14.084;2023-03-18T13:05:01;12.63;;;6.30;;
78783;SDS011;68127;51.050;14.084;2023-03-18T13:10:18;11.80;;;6.90;;
78783;SDS011;68127;51.050;14.084;2023-03-18T13:12:45;12.73;;;7.47;;
78783;SDS011;68127;51.050;14.084;2023-03-18T13:15:24;16.13;;;8.43;;
78783;SDS011;68127;51.050;14.084;2023-03-18T13:17:54;13.68;;;7.60;;
78783;SDS011;68127;51.050;14.084;2023-03-18T13:20:28;13.27;;;7.32;;
78783;SDS011;68127;51.050;14.084;2023-03-18T13:39:36;11.98;;;7.30;;
78783;SDS011;68127;51.050;14.084;2023-03-18T13:42:24;17.88;;;8.55;;
78783;SDS011;68127;51.050;14.084;2023-03-18T13:45:00;15.77;;;7.35;;
78783;SDS011;68127;51.050;14.084;2023-03-18T13:47:31;11.25;;;6.70;;
78783;SDS011;68127;51.050;14.084;2023-03-18T13:49:59;17.42;;;8.43;;
78783;SDS011;68127;51.050;14.084;2023-03-18T13:52:28;11.80;;;6.97;;
78783;SDS011;68127;51.050;14.084;2023-03-18T13:54:59;12.75;;;6.68;;
78783;SDS011;68127;51.050;14.084;2023-03-18T14:05:35;13.00;;;7.68;;
78783;SDS011;68127;51.050;14.084;2023-03-18T14:08:04;15.38;;;8.02;;
78783;SDS011;68127;51.050;14.084;2023-03-18T14:13:43;12.93;;;6.93;;
78783;SDS011;68127;51.050;14.084;2023-03-18T14:21:32;12.90;;;7.43;;
78783;SDS011;68127;51.050;14.084;2023-03-18T14:24:00;13.48;;;7.30;;
78783;SDS011;68127;51.050;14.084;2023-03-18T14:26:28;16.77;;;7.85;;
78783;SDS011;68127;51.050;14.084;2023-03-18T14:28:56;11.18;;;6.80;;
78783;SDS011;68127;51.050;14.084;2023-03-18T14:39:07;18.05;;;8.60;;
78783;SDS011;68127;51.050;14.084;2023-03-18T14:41:40;11.65;;;6.07;;
78783;SDS011;68127;51.050;14.084;2023-03-18T14:44:23;15.07;;;6.95;;
78783;SDS011;68127;51.050;14.084;2023-03-18T14:46:55;13.63;;;7.05;;
78783;SDS011;68127;51.050;14.084;2023-03-18T14:49:42;12.95;;;7.25;;
78783;SDS011;68127;51.050;14.084;2023-03-18T14:52:21;11.52;;;6.85;;
78783;SDS011;68127;51.050;14.084;2023-03-18T14:54:50;14.43;;;6.97;;
78783;SDS011;68127;51.050;14.084;2023-03-18T14:57:19;13.30;;;6.80;;
78783;SDS011;68127;51.050;14.084;2023-03-18T14:59:45;12.70;;;7.45;;
78783;SDS011;68127;51.050;14.084;2023-03-18T15:02:15;10.80;;;5.88;;
78783;SDS011;68127;51.050;14.084;2023-03-18T15:04:56;10.75;;;6.10;;
78783;SDS011;68127;51.050;14.084;2023-03-18T15:07:24;12.10;;;6.57;;
78783;SDS011;68127;51.050;14.084;2023-03-18T15:09:56;10.23;;;5.97;;
78783;SDS011;68127;51.050;14.084;2023-03-18T15:12:25;12.57;;;7.43;;
78783;SDS011;68127;51.050;14.084;2023-03-18T15:14:51;15.13;;;7.53;;
78783;SDS011;68127;51.050;14.084;2023-03-18T15:17:16;15.30;;;7.30;;
78783;SDS011;68127;51.050;14.084;2023-03-18T15:19:42;14.30;;;6.88;;
78783;SDS011;68127;51.050;14.084;2023-03-18T15:22:08;11.88;;;6.40;;
78783;SDS011;68127;51.050;14.084;2023-03-18T15:24:42;10.55;;;6.07;;
78783;SDS011;68127;51.050;14.084;2023-03-18T15:27:14;14.18;;;7.75;;
78783;SDS011;68127;51.050;14.084;2023-03-18T15:32:16;28.75;;;13.50;;
78783;SDS011;68127;51.050;14.084;2023-03-18T15:34:45;20.73;;;10.50;;
78783;SDS011;68127;51.050;14.084;2023-03-18T15:37:37;15.88;;;7.90;;
78783;SDS011;68127;51.050;14.084;2023-03-18T15:42:55;14.15;;;8.25;;
78783;SDS011;68127;51.050;14.084;2023-03-18T15:45:23;11.70;;;6.68;;
78783;SDS011;68127;51.050;14.084;2023-03-18T15:47:51;13.40;;;7.32;;
78783;SDS011;68127;51.050;14.084;2023-03-18T15:52:42;13.45;;;7.60;;
78783;SDS011;68127;51.050;14.084;2023-03-18T15:55:27;13.57;;;7.80;;
78783;SDS011;68127;51.050;14.084;2023-03-18T15:57:54;15.45;;;7.93;;
78783;SDS011;68127;51.050;14.084;2023-03-18T16:00:20;14.07;;;7.30;;
78783;SDS011;68127;51.050;14.084;2023-03-18T16:02:47;14.93;;;7.78;;
78783;SDS011;68127;51.050;14.084;2023-03-18T16:07:48;14.05;;;7.70;;
78783;SDS011;68127;51.050;14.084;2023-03-18T16:10:14;15.57;;;7.93;;
78783;SDS011;68127;51.050;14.084;2023-03-18T16:12:44;14.50;;;8.07;;
78783;SDS011;68127;51.050;14.084;2023-03-18T16:15:13;13.65;;;7.90;;
78783;SDS011;68127;51.050;14.084;2023-03-18T16:17:42;16.35;;;8.25;;
78783;SDS011;68127;51.050;14.084;2023-03-18T16:20:18;14.15;;;7.22;;
78783;SDS011;68127;51.050;14.084;2023-03-18T16:22:45;16.33;;;8.43;;
78783;SDS011;68127;51.050;14.084;2023-03-18T16:25:11;12.93;;;7.38;;